Terminal Aerodrome Forecast
Issued by NWS

Home | Current Version | Previous Version | Text Only | Print | Product List | Glossary On
Versions: 1 2 3 4 5 6 7 8 9 10 11 12 13 14 15 16 17 18 19 20 21 22 23 24 25 26 27 28 29 30
630
FTUS41 KOKX 231357 AAA
TAFHPN
TAF AMD
KHPN 231357Z 2314/2412 21004KT P6SM FEW090 BKN250
     FM231500 20006KT P6SM VCSH FEW030 BKN070
     FM231900 19009KT P6SM SCT020 BKN045
      TEMPO 2322/2402 3SM TSRA SCT020CB
     FM240700 22006KT 3SM SHRA VCTS SCT015CB BKN050
      AMD NOT SKED=

USA.gov is the U.S. government's official web portal to all federal, state and local government web resources and services.